sensor_id;sensor_type;location;lat;lon;timestamp;P1;durP1;ratioP1;P2;durP2;ratioP2
47089;SDS011;32840;52.516;13.294;2023-07-29T00:02:35;7.18;;;6.47;;
47089;SDS011;32840;52.516;13.294;2023-07-29T00:05:20;8.05;;;7.13;;
47089;SDS011;32840;52.516;13.294;2023-07-29T00:08:05;11.52;;;6.93;;
47089;SDS011;32840;52.516;13.294;2023-07-29T00:10:50;9.40;;;6.72;;
47089;SDS011;32840;52.516;13.294;2023-07-29T00:13:35;9.25;;;7.30;;
47089;SDS011;32840;52.516;13.294;2023-07-29T00:16:20;7.65;;;6.85;;
47089;SDS011;32840;52.516;13.294;2023-07-29T00:19:06;8.00;;;7.13;;
47089;SDS011;32840;52.516;13.294;2023-07-29T00:21:51;9.48;;;6.78;;
47089;SDS011;32840;52.516;13.294;2023-07-29T00:24:36;9.85;;;8.00;;
47089;SDS011;32840;52.516;13.294;2023-07-29T00:27:21;8.23;;;6.90;;
47089;SDS011;32840;52.516;13.294;2023-07-29T00:30:06;9.07;;;7.13;;
47089;SDS011;32840;52.516;13.294;2023-07-29T00:32:51;8.35;;;7.15;;
47089;SDS011;32840;52.516;13.294;2023-07-29T00:35:36;9.05;;;7.90;;
47089;SDS011;32840;52.516;13.294;2023-07-29T00:38:21;10.18;;;7.82;;
47089;SDS011;32840;52.516;13.294;2023-07-29T00:41:06;8.30;;;7.50;;
47089;SDS011;32840;52.516;13.294;2023-07-29T00:43:52;10.55;;;8.40;;
47089;SDS011;32840;52.516;13.294;2023-07-29T00:46:37;10.23;;;7.90;;
47089;SDS011;32840;52.516;13.294;2023-07-29T00:49:24;10.15;;;6.90;;
47089;SDS011;32840;52.516;13.294;2023-07-29T00:52:09;9.13;;;7.05;;
47089;SDS011;32840;52.516;13.294;2023-07-29T00:54:56;8.48;;;7.57;;
47089;SDS011;32840;52.516;13.294;2023-07-29T00:57:41;10.05;;;7.65;;
47089;SDS011;32840;52.516;13.294;2023-07-29T01:00:29;8.52;;;7.13;;
47089;SDS011;32840;52.516;13.294;2023-07-29T01:03:14;8.18;;;7.38;;
47089;SDS011;32840;52.516;13.294;2023-07-29T01:12:16;9.98;;;8.02;;
47089;SDS011;32840;52.516;13.294;2023-07-29T01:18:04;8.23;;;7.43;;
47089;SDS011;32840;52.516;13.294;2023-07-29T01:20:51;9.38;;;7.82;;
47089;SDS011;32840;52.516;13.294;2023-07-29T01:23:38;10.55;;;7.95;;
47089;SDS011;32840;52.516;13.294;2023-07-29T01:26:23;10.18;;;8.88;;
47089;SDS011;32840;52.516;13.294;2023-07-29T01:29:08;10.27;;;8.52;;
47089;SDS011;32840;52.516;13.294;2023-07-29T01:31:54;9.80;;;8.88;;
47089;SDS011;32840;52.516;13.294;2023-07-29T01:34:44;10.93;;;8.18;;
47089;SDS011;32840;52.516;13.294;2023-07-29T01:37:33;12.85;;;8.48;;
47089;SDS011;32840;52.516;13.294;2023-07-29T01:40:22;9.10;;;8.07;;
47089;SDS011;32840;52.516;13.294;2023-07-29T01:43:10;10.30;;;8.35;;
47089;SDS011;32840;52.516;13.294;2023-07-29T01:45:56;11.95;;;8.25;;
47089;SDS011;32840;52.516;13.294;2023-07-29T01:48:41;9.90;;;8.05;;
47089;SDS011;32840;52.516;13.294;2023-07-29T01:51:27;10.77;;;8.23;;
47089;SDS011;32840;52.516;13.294;2023-07-29T01:54:12;12.63;;;8.98;;
47089;SDS011;32840;52.516;13.294;2023-07-29T01:56:57;9.68;;;8.57;;
47089;SDS011;32840;52.516;13.294;2023-07-29T01:59:42;10.30;;;8.18;;
47089;SDS011;32840;52.516;13.294;2023-07-29T02:02:27;9.25;;;8.35;;
47089;SDS011;32840;52.516;13.294;2023-07-29T02:05:12;13.30;;;8.68;;
47089;SDS011;32840;52.516;13.294;2023-07-29T02:07:56;9.77;;;8.15;;
47089;SDS011;32840;52.516;13.294;2023-07-29T02:10:42;9.05;;;8.07;;
47089;SDS011;32840;52.516;13.294;2023-07-29T02:13:29;9.10;;;8.20;;
47089;SDS011;32840;52.516;13.294;2023-07-29T02:16:14;9.68;;;7.90;;
47089;SDS011;32840;52.516;13.294;2023-07-29T02:18:59;9.65;;;8.15;;
47089;SDS011;32840;52.516;13.294;2023-07-29T02:21:44;11.13;;;8.57;;
47089;SDS011;32840;52.516;13.294;2023-07-29T02:24:29;10.77;;;8.48;;
47089;SDS011;32840;52.516;13.294;2023-07-29T02:30:04;11.45;;;8.20;;
47089;SDS011;32840;52.516;13.294;2023-07-29T02:32:50;10.07;;;8.05;;
47089;SDS011;32840;52.516;13.294;2023-07-29T02:35:35;10.07;;;7.93;;
47089;SDS011;32840;52.516;13.294;2023-07-29T02:38:20;10.05;;;7.97;;
47089;SDS011;32840;52.516;13.294;2023-07-29T02:41:05;9.00;;;7.63;;
47089;SDS011;32840;52.516;13.294;2023-07-29T02:43:50;10.73;;;9.65;;
47089;SDS011;32840;52.516;13.294;2023-07-29T02:46:35;11.45;;;8.52;;
47089;SDS011;32840;52.516;13.294;2023-07-29T02:49:20;10.75;;;8.38;;
47089;SDS011;32840;52.516;13.294;2023-07-29T02:52:05;10.82;;;7.95;;
47089;SDS011;32840;52.516;13.294;2023-07-29T02:54:50;11.85;;;8.05;;
47089;SDS011;32840;52.516;13.294;2023-07-29T02:57:35;9.93;;;8.45;;
47089;SDS011;32840;52.516;13.294;2023-07-29T03:00:20;9.02;;;8.13;;
47089;SDS011;32840;52.516;13.294;2023-07-29T03:03:04;11.65;;;8.85;;
47089;SDS011;32840;52.516;13.294;2023-07-29T03:05:50;9.70;;;7.75;;
47089;SDS011;32840;52.516;13.294;2023-07-29T03:08:45;9.13;;;8.18;;
47089;SDS011;32840;52.516;13.294;2023-07-29T03:11:30;10.38;;;7.40;;
47089;SDS011;32840;52.516;13.294;2023-07-29T03:14:15;9.95;;;8.35;;
47089;SDS011;32840;52.516;13.294;2023-07-29T03:17:03;10.98;;;8.10;;
47089;SDS011;32840;52.516;13.294;2023-07-29T03:19:48;8.90;;;8.00;;
47089;SDS011;32840;52.516;13.294;2023-07-29T03:22:34;10.40;;;8.13;;
47089;SDS011;32840;52.516;13.294;2023-07-29T03:25:19;12.77;;;8.52;;
47089;SDS011;32840;52.516;13.294;2023-07-29T03:28:04;10.00;;;8.40;;
47089;SDS011;32840;52.516;13.294;2023-07-29T03:30:49;9.40;;;8.40;;
47089;SDS011;32840;52.516;13.294;2023-07-29T03:33:34;9.45;;;7.57;;
47089;SDS011;32840;52.516;13.294;2023-07-29T03:36:19;10.18;;;8.07;;
47089;SDS011;32840;52.516;13.294;2023-07-29T03:39:05;10.77;;;8.50;;
47089;SDS011;32840;52.516;13.294;2023-07-29T03:41:52;10.45;;;7.88;;
47089;SDS011;32840;52.516;13.294;2023-07-29T03:44:36;10.13;;;7.80;;
47089;SDS011;32840;52.516;13.294;2023-07-29T03:47:23;10.13;;;8.15;;
47089;SDS011;32840;52.516;13.294;2023-07-29T03:50:08;10.85;;;8.50;;
47089;SDS011;32840;52.516;13.294;2023-07-29T03:52:53;10.02;;;7.32;;
47089;SDS011;32840;52.516;13.294;2023-07-29T03:55:38;8.82;;;7.50;;
47089;SDS011;32840;52.516;13.294;2023-07-29T03:58:23;8.52;;;7.25;;
47089;SDS011;32840;52.516;13.294;2023-07-29T04:01:09;9.23;;;8.00;;
47089;SDS011;32840;52.516;13.294;2023-07-29T04:03:54;9.80;;;7.82;;
47089;SDS011;32840;52.516;13.294;2023-07-29T04:06:39;11.13;;;8.25;;
47089;SDS011;32840;52.516;13.294;2023-07-29T04:09:24;10.60;;;7.88;;
47089;SDS011;32840;52.516;13.294;2023-07-29T04:12:09;10.25;;;7.88;;
47089;SDS011;32840;52.516;13.294;2023-07-29T04:14:54;8.85;;;7.15;;
47089;SDS011;32840;52.516;13.294;2023-07-29T04:17:39;12.38;;;8.60;;
47089;SDS011;32840;52.516;13.294;2023-07-29T04:20:24;9.55;;;8.55;;
47089;SDS011;32840;52.516;13.294;2023-07-29T04:23:09;9.27;;;6.97;;
47089;SDS011;32840;52.516;13.294;2023-07-29T04:25:54;9.13;;;7.85;;
47089;SDS011;32840;52.516;13.294;2023-07-29T04:28:39;8.25;;;7.38;;
47089;SDS011;32840;52.516;13.294;2023-07-29T04:31:24;9.25;;;7.10;;
47089;SDS011;32840;52.516;13.294;2023-07-29T04:34:09;8.48;;;7.43;;
47089;SDS011;32840;52.516;13.294;2023-07-29T04:36:54;9.18;;;7.82;;
47089;SDS011;32840;52.516;13.294;2023-07-29T04:39:39;10.25;;;8.02;;
47089;SDS011;32840;52.516;13.294;2023-07-29T04:42:24;8.98;;;7.50;;
47089;SDS011;32840;52.516;13.294;2023-07-29T04:45:09;12.32;;;7.53;;
47089;SDS011;32840;52.516;13.294;2023-07-29T04:47:54;8.63;;;7.72;;
47089;SDS011;32840;52.516;13.294;2023-07-29T04:50:39;7.90;;;7.00;;
47089;SDS011;32840;52.516;13.294;2023-07-29T04:53:24;9.48;;;7.55;;
47089;SDS011;32840;52.516;13.294;2023-07-29T04:56:09;7.45;;;6.72;;
47089;SDS011;32840;52.516;13.294;2023-07-29T04:58:54;8.25;;;7.40;;
47089;SDS011;32840;52.516;13.294;2023-07-29T05:01:39;11.35;;;6.90;;
47089;SDS011;32840;52.516;13.294;2023-07-29T05:04:24;8.25;;;7.45;;
47089;SDS011;32840;52.516;13.294;2023-07-29T05:07:08;7.97;;;7.18;;
47089;SDS011;32840;52.516;13.294;2023-07-29T05:09:53;8.77;;;7.40;;
47089;SDS011;32840;52.516;13.294;2023-07-29T05:12:38;10.27;;;7.22;;
47089;SDS011;32840;52.516;13.294;2023-07-29T05:15:23;8.55;;;6.88;;
47089;SDS011;32840;52.516;13.294;2023-07-29T05:18:08;9.93;;;7.72;;
47089;SDS011;32840;52.516;13.294;2023-07-29T05:20:53;8.93;;;7.50;;
47089;SDS011;32840;52.516;13.294;2023-07-29T05:23:38;8.25;;;7.45;;
47089;SDS011;32840;52.516;13.294;2023-07-29T05:26:23;8.45;;;7.55;;
47089;SDS011;32840;52.516;13.294;2023-07-29T05:29:08;8.20;;;7.22;;
47089;SDS011;32840;52.516;13.294;2023-07-29T05:31:53;8.25;;;7.38;;
47089;SDS011;32840;52.516;13.294;2023-07-29T05:34:38;9.27;;;7.78;;
47089;SDS011;32840;52.516;13.294;2023-07-29T05:37:23;8.15;;;7.20;;
47089;SDS011;32840;52.516;13.294;2023-07-29T05:40:08;9.57;;;7.80;;
47089;SDS011;32840;52.516;13.294;2023-07-29T05:42:53;8.10;;;7.30;;
47089;SDS011;32840;52.516;13.294;2023-07-29T05:45:38;7.95;;;6.80;;
47089;SDS011;32840;52.516;13.294;2023-07-29T05:48:23;8.93;;;7.15;;
47089;SDS011;32840;52.516;13.294;2023-07-29T05:51:08;8.05;;;7.22;;
47089;SDS011;32840;52.516;13.294;2023-07-29T05:53:53;8.45;;;6.80;;
47089;SDS011;32840;52.516;13.294;2023-07-29T05:56:38;8.38;;;7.22;;
47089;SDS011;32840;52.516;13.294;2023-07-29T05:59:23;10.40;;;7.22;;
47089;SDS011;32840;52.516;13.294;2023-07-29T06:02:08;10.13;;;7.82;;
47089;SDS011;32840;52.516;13.294;2023-07-29T06:04:52;8.88;;;7.43;;
47089;SDS011;32840;52.516;13.294;2023-07-29T06:07:38;9.48;;;7.75;;
47089;SDS011;32840;52.516;13.294;2023-07-29T06:10:22;8.85;;;7.18;;
47089;SDS011;32840;52.516;13.294;2023-07-29T06:13:07;7.65;;;6.75;;
47089;SDS011;32840;52.516;13.294;2023-07-29T06:15:52;9.43;;;6.10;;
47089;SDS011;32840;52.516;13.294;2023-07-29T06:18:37;6.22;;;5.00;;
47089;SDS011;32840;52.516;13.294;2023-07-29T06:21:22;7.28;;;6.55;;
47089;SDS011;32840;52.516;13.294;2023-07-29T06:24:07;7.60;;;5.53;;
47089;SDS011;32840;52.516;13.294;2023-07-29T06:26:52;10.18;;;6.47;;
47089;SDS011;32840;52.516;13.294;2023-07-29T06:29:37;8.27;;;5.90;;
47089;SDS011;32840;52.516;13.294;2023-07-29T06:32:23;7.10;;;6.20;;
47089;SDS011;32840;52.516;13.294;2023-07-29T06:35:07;5.53;;;4.80;;
47089;SDS011;32840;52.516;13.294;2023-07-29T06:37:52;6.47;;;5.15;;
47089;SDS011;32840;52.516;13.294;2023-07-29T06:40:37;7.00;;;6.30;;
47089;SDS011;32840;52.516;13.294;2023-07-29T06:43:22;7.40;;;5.95;;
47089;SDS011;32840;52.516;13.294;2023-07-29T06:46:07;6.47;;;5.00;;
47089;SDS011;32840;52.516;13.294;2023-07-29T06:48:52;6.57;;;5.97;;
47089;SDS011;32840;52.516;13.294;2023-07-29T06:51:37;5.38;;;4.88;;
47089;SDS011;32840;52.516;13.294;2023-07-29T06:54:25;6.47;;;5.45;;
47089;SDS011;32840;52.516;13.294;2023-07-29T06:57:10;6.05;;;4.28;;
47089;SDS011;32840;52.516;13.294;2023-07-29T06:59:55;6.30;;;4.90;;
47089;SDS011;32840;52.516;13.294;2023-07-29T07:02:40;5.93;;;4.18;;
47089;SDS011;32840;52.516;13.294;2023-07-29T07:05:25;5.88;;;5.20;;
47089;SDS011;32840;52.516;13.294;2023-07-29T07:08:10;5.93;;;4.57;;
47089;SDS011;32840;52.516;13.294;2023-07-29T07:10:55;5.68;;;4.28;;
47089;SDS011;32840;52.516;13.294;2023-07-29T07:13:40;4.90;;;4.40;;
47089;SDS011;32840;52.516;13.294;2023-07-29T07:16:25;4.78;;;4.28;;
47089;SDS011;32840;52.516;13.294;2023-07-29T07:19:13;4.88;;;4.38;;
47089;SDS011;32840;52.516;13.294;2023-07-29T07:21:58;5.28;;;4.78;;
47089;SDS011;32840;52.516;13.294;2023-07-29T07:24:43;6.00;;;5.45;;
47089;SDS011;32840;52.516;13.294;2023-07-29T07:27:28;5.75;;;4.28;;
47089;SDS011;32840;52.516;13.294;2023-07-29T07:30:16;4.75;;;4.32;;
47089;SDS011;32840;52.516;13.294;2023-07-29T07:33:01;5.10;;;4.60;;
47089;SDS011;32840;52.516;13.294;2023-07-29T07:35:46;7.88;;;4.78;;
47089;SDS011;32840;52.516;13.294;2023-07-29T07:38:31;5.70;;;5.10;;
47089;SDS011;32840;52.516;13.294;2023-07-29T07:41:16;6.47;;;5.00;;
47089;SDS011;32840;52.516;13.294;2023-07-29T07:44:01;4.53;;;4.13;;
47089;SDS011;32840;52.516;13.294;2023-07-29T07:46:46;5.53;;;5.03;;
47089;SDS011;32840;52.516;13.294;2023-07-29T07:49:31;4.68;;;4.28;;
47089;SDS011;32840;52.516;13.294;2023-07-29T07:52:16;6.88;;;5.05;;
47089;SDS011;32840;52.516;13.294;2023-07-29T07:55:01;4.38;;;3.97;;
47089;SDS011;32840;52.516;13.294;2023-07-29T07:57:46;4.32;;;3.65;;
47089;SDS011;32840;52.516;13.294;2023-07-29T08:00:31;4.75;;;3.50;;
47089;SDS011;32840;52.516;13.294;2023-07-29T08:03:17;5.03;;;3.65;;
47089;SDS011;32840;52.516;13.294;2023-07-29T08:06:01;4.60;;;3.40;;
47089;SDS011;32840;52.516;13.294;2023-07-29T08:08:47;4.75;;;3.30;;
47089;SDS011;32840;52.516;13.294;2023-07-29T08:11:32;3.58;;;3.28;;
47089;SDS011;32840;52.516;13.294;2023-07-29T08:14:17;4.32;;;3.92;;
47089;SDS011;32840;52.516;13.294;2023-07-29T08:17:02;5.72;;;4.22;;
47089;SDS011;32840;52.516;13.294;2023-07-29T08:19:46;5.40;;;3.88;;
47089;SDS011;32840;52.516;13.294;2023-07-29T08:22:32;5.88;;;4.20;;
47089;SDS011;32840;52.516;13.294;2023-07-29T08:25:17;6.13;;;3.95;;
47089;SDS011;32840;52.516;13.294;2023-07-29T08:28:02;6.50;;;3.60;;
47089;SDS011;32840;52.516;13.294;2023-07-29T08:30:47;4.28;;;3.88;;
47089;SDS011;32840;52.516;13.294;2023-07-29T08:33:32;3.72;;;3.30;;
47089;SDS011;32840;52.516;13.294;2023-07-29T08:36:19;4.32;;;3.63;;
47089;SDS011;32840;52.516;13.294;2023-07-29T08:39:04;4.28;;;3.42;;
47089;SDS011;32840;52.516;13.294;2023-07-29T08:41:51;5.70;;;3.80;;
47089;SDS011;32840;52.516;13.294;2023-07-29T08:44:42;5.35;;;3.60;;
47089;SDS011;32840;52.516;13.294;2023-07-29T08:47:28;5.13;;;3.63;;
47089;SDS011;32840;52.516;13.294;2023-07-29T08:50:13;4.30;;;3.53;;
47089;SDS011;32840;52.516;13.294;2023-07-29T08:52:59;4.25;;;3.00;;
47089;SDS011;32840;52.516;13.294;2023-07-29T08:55:47;4.18;;;3.30;;
47089;SDS011;32840;52.516;13.294;2023-07-29T08:58:32;5.70;;;3.45;;
47089;SDS011;32840;52.516;13.294;2023-07-29T09:01:17;3.88;;;2.80;;
47089;SDS011;32840;52.516;13.294;2023-07-29T09:04:02;4.63;;;3.58;;
47089;SDS011;32840;52.516;13.294;2023-07-29T09:06:47;3.75;;;3.42;;
47089;SDS011;32840;52.516;13.294;2023-07-29T09:09:34;3.95;;;3.53;;
47089;SDS011;32840;52.516;13.294;2023-07-29T09:12:19;5.47;;;3.22;;
47089;SDS011;32840;52.516;13.294;2023-07-29T09:15:05;4.00;;;3.25;;
47089;SDS011;32840;52.516;13.294;2023-07-29T09:17:51;4.43;;;3.45;;
47089;SDS011;32840;52.516;13.294;2023-07-29T09:20:36;4.65;;;3.28;;
47089;SDS011;32840;52.516;13.294;2023-07-29T09:23:21;5.20;;;3.75;;
47089;SDS011;32840;52.516;13.294;2023-07-29T09:26:06;3.85;;;3.30;;
47089;SDS011;32840;52.516;13.294;2023-07-29T09:28:52;4.18;;;3.47;;
47089;SDS011;32840;52.516;13.294;2023-07-29T09:31:38;4.95;;;3.42;;
47089;SDS011;32840;52.516;13.294;2023-07-29T09:34:23;4.78;;;3.40;;
47089;SDS011;32840;52.516;13.294;2023-07-29T09:37:08;5.60;;;4.80;;
47089;SDS011;32840;52.516;13.294;2023-07-29T09:39:53;4.75;;;3.70;;
47089;SDS011;32840;52.516;13.294;2023-07-29T09:42:38;3.40;;;2.90;;
47089;SDS011;32840;52.516;13.294;2023-07-29T09:45:24;5.45;;;3.35;;
47089;SDS011;32840;52.516;13.294;2023-07-29T09:48:10;4.93;;;3.00;;
47089;SDS011;32840;52.516;13.294;2023-07-29T09:50:55;3.15;;;2.67;;
47089;SDS011;32840;52.516;13.294;2023-07-29T09:53:42;3.50;;;3.20;;
47089;SDS011;32840;52.516;13.294;2023-07-29T09:56:28;4.72;;;3.35;;
47089;SDS011;32840;52.516;13.294;2023-07-29T09:59:13;4.22;;;3.17;;
47089;SDS011;32840;52.516;13.294;2023-07-29T10:02:03;5.63;;;3.22;;
47089;SDS011;32840;52.516;13.294;2023-07-29T10:04:48;5.20;;;2.60;;
47089;SDS011;32840;52.516;13.294;2023-07-29T10:07:37;2.60;;;2.30;;
47089;SDS011;32840;52.516;13.294;2023-07-29T10:10:23;3.00;;;2.70;;
47089;SDS011;32840;52.516;13.294;2023-07-29T10:13:08;5.88;;;3.00;;
47089;SDS011;32840;52.516;13.294;2023-07-29T10:15:54;4.82;;;2.67;;
47089;SDS011;32840;52.516;13.294;2023-07-29T10:18:49;3.05;;;2.13;;
47089;SDS011;32840;52.516;13.294;2023-07-29T10:21:36;3.28;;;2.33;;
47089;SDS011;32840;52.516;13.294;2023-07-29T10:24:24;6.05;;;3.50;;
47089;SDS011;32840;52.516;13.294;2023-07-29T10:27:13;3.22;;;2.50;;
47089;SDS011;32840;52.516;13.294;2023-07-29T10:30:02;3.17;;;2.72;;
47089;SDS011;32840;52.516;13.294;2023-07-29T10:32:48;5.15;;;2.75;;
47089;SDS011;32840;52.516;13.294;2023-07-29T10:35:33;4.07;;;2.60;;
47089;SDS011;32840;52.516;13.294;2023-07-29T10:38:20;4.45;;;3.00;;
47089;SDS011;32840;52.516;13.294;2023-07-29T10:41:06;3.35;;;2.00;;
47089;SDS011;32840;52.516;13.294;2023-07-29T10:43:51;3.28;;;2.70;;
47089;SDS011;32840;52.516;13.294;2023-07-29T10:46:36;3.88;;;2.50;;
47089;SDS011;32840;52.516;13.294;2023-07-29T10:49:22;3.42;;;2.10;;
47089;SDS011;32840;52.516;13.294;2023-07-29T10:52:08;2.90;;;2.30;;
47089;SDS011;32840;52.516;13.294;2023-07-29T10:54:53;2.60;;;2.25;;
47089;SDS011;32840;52.516;13.294;2023-07-29T10:57:38;4.18;;;2.42;;
47089;SDS011;32840;52.516;13.294;2023-07-29T11:00:25;4.63;;;2.40;;
47089;SDS011;32840;52.516;13.294;2023-07-29T11:03:15;5.00;;;2.10;;
47089;SDS011;32840;52.516;13.294;2023-07-29T11:06:00;4.75;;;2.08;;
47089;SDS011;32840;52.516;13.294;2023-07-29T11:08:49;2.95;;;2.28;;
47089;SDS011;32840;52.516;13.294;2023-07-29T11:11:34;21.15;;;6.30;;
47089;SDS011;32840;52.516;13.294;2023-07-29T11:14:23;9.02;;;3.35;;
47089;SDS011;32840;52.516;13.294;2023-07-29T11:17:08;7.47;;;3.05;;
47089;SDS011;32840;52.516;13.294;2023-07-29T11:19:54;5.30;;;1.67;;
47089;SDS011;32840;52.516;13.294;2023-07-29T11:22:43;3.92;;;1.58;;
47089;SDS011;32840;52.516;13.294;2023-07-29T11:25:28;5.43;;;1.88;;
47089;SDS011;32840;52.516;13.294;2023-07-29T11:28:14;4.03;;;1.38;;
47089;SDS011;32840;52.516;13.294;2023-07-29T11:30:59;4.30;;;2.10;;
47089;SDS011;32840;52.516;13.294;2023-07-29T11:33:44;3.90;;;1.55;;
47089;SDS011;32840;52.516;13.294;2023-07-29T11:36:29;2.15;;;1.30;;
47089;SDS011;32840;52.516;13.294;2023-07-29T11:39:14;4.80;;;1.83;;
47089;SDS011;32840;52.516;13.294;2023-07-29T11:41:59;3.20;;;1.52;;
47089;SDS011;32840;52.516;13.294;2023-07-29T11:44:44;4.18;;;1.83;;
47089;SDS011;32840;52.516;13.294;2023-07-29T11:47:29;3.17;;;1.85;;
47089;SDS011;32840;52.516;13.294;2023-07-29T11:50:14;7.20;;;2.70;;
47089;SDS011;32840;52.516;13.294;2023-07-29T11:53:00;6.60;;;2.70;;
47089;SDS011;32840;52.516;13.294;2023-07-29T11:55:45;6.03;;;2.00;;
47089;SDS011;32840;52.516;13.294;2023-07-29T11:58:35;5.32;;;2.67;;
47089;SDS011;32840;52.516;13.294;2023-07-29T12:01:22;5.85;;;2.83;;
47089;SDS011;32840;52.516;13.294;2023-07-29T12:04:07;5.30;;;2.83;;
47089;SDS011;32840;52.516;13.294;2023-07-29T12:06:52;5.80;;;2.35;;
47089;SDS011;32840;52.516;13.294;2023-07-29T12:09:37;4.68;;;2.97;;
47089;SDS011;32840;52.516;13.294;2023-07-29T12:12:22;8.57;;;6.30;;
47089;SDS011;32840;52.516;13.294;2023-07-29T12:15:07;4.53;;;3.20;;
47089;SDS011;32840;52.516;13.294;2023-07-29T12:17:53;4.90;;;2.83;;
47089;SDS011;32840;52.516;13.294;2023-07-29T12:20:40;7.18;;;4.57;;
47089;SDS011;32840;52.516;13.294;2023-07-29T12:23:25;8.00;;;5.88;;
47089;SDS011;32840;52.516;13.294;2023-07-29T12:26:10;4.93;;;3.78;;
47089;SDS011;32840;52.516;13.294;2023-07-29T12:28:55;3.90;;;3.00;;
47089;SDS011;32840;52.516;13.294;2023-07-29T12:31:43;4.75;;;3.13;;
47089;SDS011;32840;52.516;13.294;2023-07-29T12:34:28;6.00;;;3.63;;
47089;SDS011;32840;52.516;13.294;2023-07-29T12:37:13;5.68;;;3.00;;
47089;SDS011;32840;52.516;13.294;2023-07-29T12:39:58;5.20;;;2.55;;
47089;SDS011;32840;52.516;13.294;2023-07-29T12:42:43;4.35;;;2.90;;
47089;SDS011;32840;52.516;13.294;2023-07-29T12:45:35;3.25;;;2.20;;
47089;SDS011;32840;52.516;13.294;2023-07-29T12:48:20;5.82;;;3.17;;
47089;SDS011;32840;52.516;13.294;2023-07-29T12:51:05;3.63;;;2.72;;
47089;SDS011;32840;52.516;13.294;2023-07-29T12:53:50;2.67;;;2.08;;
47089;SDS011;32840;52.516;13.294;2023-07-29T12:56:35;3.30;;;2.53;;
47089;SDS011;32840;52.516;13.294;2023-07-29T12:59:20;3.88;;;2.58;;
47089;SDS011;32840;52.516;13.294;2023-07-29T13:02:05;4.72;;;2.42;;
47089;SDS011;32840;52.516;13.294;2023-07-29T13:04:50;3.58;;;2.85;;
47089;SDS011;32840;52.516;13.294;2023-07-29T13:07:35;4.00;;;3.40;;
47089;SDS011;32840;52.516;13.294;2023-07-29T13:10:20;4.25;;;2.70;;
47089;SDS011;32840;52.516;13.294;2023-07-29T13:13:05;3.25;;;2.63;;
47089;SDS011;32840;52.516;13.294;2023-07-29T13:15:50;4.97;;;2.60;;
47089;SDS011;32840;52.516;13.294;2023-07-29T13:18:35;4.97;;;2.80;;
47089;SDS011;32840;52.516;13.294;2023-07-29T13:21:20;3.63;;;2.75;;
47089;SDS011;32840;52.516;13.294;2023-07-29T13:24:05;3.58;;;2.55;;
47089;SDS011;32840;52.516;13.294;2023-07-29T13:26:50;5.07;;;2.45;;
47089;SDS011;32840;52.516;13.294;2023-07-29T13:29:35;3.50;;;2.33;;
47089;SDS011;32840;52.516;13.294;2023-07-29T13:32:20;2.00;;;1.80;;
47089;SDS011;32840;52.516;13.294;2023-07-29T13:35:05;5.30;;;2.65;;
47089;SDS011;32840;52.516;13.294;2023-07-29T13:37:50;2.70;;;2.17;;
47089;SDS011;32840;52.516;13.294;2023-07-29T13:40:35;12.13;;;9.88;;
47089;SDS011;32840;52.516;13.294;2023-07-29T13:43:21;6.30;;;3.45;;
47089;SDS011;32840;52.516;13.294;2023-07-29T13:46:05;2.92;;;1.90;;
47089;SDS011;32840;52.516;13.294;2023-07-29T13:48:51;4.18;;;2.42;;
47089;SDS011;32840;52.516;13.294;2023-07-29T13:51:36;4.80;;;1.60;;
47089;SDS011;32840;52.516;13.294;2023-07-29T13:54:21;2.08;;;1.50;;
47089;SDS011;32840;52.516;13.294;2023-07-29T13:57:06;2.17;;;1.88;;
47089;SDS011;32840;52.516;13.294;2023-07-29T13:59:50;1.58;;;1.33;;
47089;SDS011;32840;52.516;13.294;2023-07-29T14:02:35;2.42;;;1.50;;
47089;SDS011;32840;52.516;13.294;2023-07-29T14:05:20;2.47;;;1.40;;
47089;SDS011;32840;52.516;13.294;2023-07-29T14:08:08;1.92;;;1.40;;
47089;SDS011;32840;52.516;13.294;2023-07-29T14:10:53;2.70;;;1.83;;
47089;SDS011;32840;52.516;13.294;2023-07-29T14:13:38;3.08;;;2.47;;
47089;SDS011;32840;52.516;13.294;2023-07-29T14:16:23;2.55;;;1.60;;
47089;SDS011;32840;52.516;13.294;2023-07-29T14:19:07;1.80;;;1.30;;
47089;SDS011;32840;52.516;13.294;2023-07-29T14:21:53;3.17;;;1.60;;
47089;SDS011;32840;52.516;13.294;2023-07-29T14:24:37;2.88;;;1.70;;
47089;SDS011;32840;52.516;13.294;2023-07-29T14:27:22;2.53;;;2.20;;
47089;SDS011;32840;52.516;13.294;2023-07-29T14:30:07;2.33;;;1.80;;
47089;SDS011;32840;52.516;13.294;2023-07-29T14:32:52;3.30;;;1.75;;
47089;SDS011;32840;52.516;13.294;2023-07-29T14:35:37;3.63;;;2.15;;
47089;SDS011;32840;52.516;13.294;2023-07-29T14:38:25;1.65;;;1.35;;
47089;SDS011;32840;52.516;13.294;2023-07-29T14:41:10;1.80;;;1.45;;
47089;SDS011;32840;52.516;13.294;2023-07-29T14:43:56;2.75;;;1.55;;
47089;SDS011;32840;52.516;13.294;2023-07-29T14:46:41;4.03;;;1.58;;
47089;SDS011;32840;52.516;13.294;2023-07-29T14:49:27;5.40;;;2.85;;
47089;SDS011;32840;52.516;13.294;2023-07-29T14:52:11;3.58;;;1.58;;
47089;SDS011;32840;52.516;13.294;2023-07-29T14:54:57;2.45;;;1.83;;
47089;SDS011;32840;52.516;13.294;2023-07-29T14:57:42;6.68;;;1.50;;
47089;SDS011;32840;52.516;13.294;2023-07-29T15:00:27;2.38;;;1.48;;
47089;SDS011;32840;52.516;13.294;2023-07-29T15:03:12;2.45;;;1.70;;
47089;SDS011;32840;52.516;13.294;2023-07-29T15:05:57;3.22;;;1.60;;
47089;SDS011;32840;52.516;13.294;2023-07-29T15:08:43;2.70;;;1.48;;
47089;SDS011;32840;52.516;13.294;2023-07-29T15:11:28;3.38;;;1.50;;
47089;SDS011;32840;52.516;13.294;2023-07-29T15:14:13;2.35;;;1.13;;
47089;SDS011;32840;52.516;13.294;2023-07-29T15:16:57;3.47;;;1.60;;
47089;SDS011;32840;52.516;13.294;2023-07-29T15:19:42;1.70;;;1.23;;
47089;SDS011;32840;52.516;13.294;2023-07-29T15:22:27;2.70;;;1.50;;
47089;SDS011;32840;52.516;13.294;2023-07-29T15:25:13;3.70;;;1.58;;
47089;SDS011;32840;52.516;13.294;2023-07-29T15:27:58;8.68;;;3.30;;
47089;SDS011;32840;52.516;13.294;2023-07-29T15:30:43;13.65;;;4.45;;
47089;SDS011;32840;52.516;13.294;2023-07-29T15:33:28;5.97;;;2.60;;
47089;SDS011;32840;52.516;13.294;2023-07-29T15:36:12;8.18;;;2.83;;
47089;SDS011;32840;52.516;13.294;2023-07-29T15:38:57;6.53;;;2.53;;
47089;SDS011;32840;52.516;13.294;2023-07-29T15:41:42;6.05;;;2.42;;
47089;SDS011;32840;52.516;13.294;2023-07-29T15:44:27;9.13;;;3.30;;
47089;SDS011;32840;52.516;13.294;2023-07-29T15:47:12;4.80;;;2.50;;
47089;SDS011;32840;52.516;13.294;2023-07-29T15:50:00;8.90;;;2.63;;
47089;SDS011;32840;52.516;13.294;2023-07-29T15:52:45;5.00;;;2.58;;
47089;SDS011;32840;52.516;13.294;2023-07-29T15:55:30;5.82;;;2.72;;
47089;SDS011;32840;52.516;13.294;2023-07-29T15:58:15;5.38;;;2.70;;
47089;SDS011;32840;52.516;13.294;2023-07-29T16:01:00;4.25;;;2.97;;
47089;SDS011;32840;52.516;13.294;2023-07-29T16:03:45;4.10;;;2.30;;
47089;SDS011;32840;52.516;13.294;2023-07-29T16:06:30;7.20;;;3.10;;
47089;SDS011;32840;52.516;13.294;2023-07-29T16:09:14;4.38;;;2.42;;
47089;SDS011;32840;52.516;13.294;2023-07-29T16:11:59;3.92;;;2.05;;
47089;SDS011;32840;52.516;13.294;2023-07-29T16:14:45;5.68;;;1.77;;
47089;SDS011;32840;52.516;13.294;2023-07-29T16:17:30;5.05;;;2.22;;
47089;SDS011;32840;52.516;13.294;2023-07-29T16:20:15;2.78;;;1.80;;
47089;SDS011;32840;52.516;13.294;2023-07-29T16:23:00;5.45;;;1.80;;
47089;SDS011;32840;52.516;13.294;2023-07-29T16:25:45;3.97;;;2.20;;
47089;SDS011;32840;52.516;13.294;2023-07-29T16:28:33;3.90;;;1.85;;
47089;SDS011;32840;52.516;13.294;2023-07-29T16:31:21;5.00;;;2.00;;
47089;SDS011;32840;52.516;13.294;2023-07-29T16:34:06;4.10;;;2.42;;